Ed Rogowsky — WDD3622 — position and weather

sailwx.info

Track history (hours):
 
Tides and Currents Weather Stations Pressure Air Temp Water Temp Dewpoint Dewpoint Depression Visibility Wind Speed Wind Dir Waves Ship Positions

Ed Rogowsky

Owner: NEW YORK TRANS HARBOR LLC, New York, NY. More information available from US FCC via Universal Licensing System and Coast Guard Vessel Documentation Center.

Last reported at 2018-Apr-20 14:30 UTC. Time now 2018-Jul-20 03:05 UTC.
Position N 40°40' W 074°01'.
Warning: this ship's position is months out of date.

Date/timePositionNaut miles runAvg speedWind from/ knotsBaromVisibWave heightAir tempDewpointWater temp
2018-Apr-20 14:30N 40°40' W 074°01'0 0.0
2018-Apr-19 14:37N 40°40' W 074°01'0 0.6
2018-Apr-19 14:31N 40°40' W 074°01'2 3.8
2018-Apr-19 14:00N 40°42' W 074°01'0 0.2
2018-Apr-19 13:30N 40°42' W 074°01'2 3.7
2018-Apr-19 13:00N 40°40' W 074°01'0 0.0
2018-Apr-19 12:30N 40°40' W 074°01'0 0.0
2018-Apr-19 00:08N 40°40' W 074°01'0 0.6
2018-Apr-19 00:00N 40°40' W 074°01'0 0.4
2018-Apr-18 23:30N 40°40' W 074°01'1 1.3
2018-Apr-18 23:00N 40°41' W 074°01'1 2.5
2018-Apr-18 22:30N 40°42' W 074°00'2 4.0
2018-Apr-18 22:00N 40°40' W 074°01'1 1.5
2018-Apr-18 21:30N 40°41' W 074°01'1 2.5
2018-Apr-18 21:00N 40°42' W 074°00'2 4.0
2018-Apr-18 20:30N 40°40' W 074°01'0 0.6
2018-Apr-18 20:00N 40°40' W 074°01'2 4.0
2018-Apr-18 19:31N 40°42' W 074°00'2 3.9
2018-Apr-18 19:00N 40°40' W 074°01'1 1.4
2018-Apr-18 18:30N 40°41' W 074°01'1 2.6
2018-Apr-18 18:00N 40°42' W 074°00'4 7.0
2018-Apr-18 17:30N 40°39' W 074°02'612.6
2018-Apr-18 17:01N 40°45' W 073°58'  
2018-Apr-13 18:00N 40°40' W 074°01'0 0.0
2018-Apr-12 17:41N 40°40' W 074°01'0 0.0
2018-Apr-12 12:57N 40°40' W 074°01'  
Track history (hours):
 
Tides and Currents Weather Stations Pressure Air Temp Water Temp Dewpoint Dewpoint Depression Visibility Wind Speed Wind Dir Waves Ship Positions

Ed Rogowsky

Owner: NEW YORK TRANS HARBOR LLC, New York, NY. More information available from US FCC via Universal Licensing System and Coast Guard Vessel Documentation Center.

Last reported at 2018-Apr-20 14:30 UTC. Time now 2018-Jul-20 03:05 UTC.
Position N 40°40' W 074°01'.
Warning: this ship's position is months out of date.

Date/timePositionNaut miles runAvg speedWind from/ knotsBaromVisibWave heightAir tempDewpointWater temp
2018-Apr-20 14:30N 40°40' W 074°01'0 0.0
2018-Apr-19 14:37N 40°40' W 074°01'0 0.6
2018-Apr-19 14:31N 40°40' W 074°01'2 3.8
2018-Apr-19 14:00N 40°42' W 074°01'0 0.2
2018-Apr-19 13:30N 40°42' W 074°01'2 3.7
2018-Apr-19 13:00N 40°40' W 074°01'0 0.0
2018-Apr-19 12:30N 40°40' W 074°01'0 0.0
2018-Apr-19 00:08N 40°40' W 074°01'0 0.6
2018-Apr-19 00:00N 40°40' W 074°01'0 0.4
2018-Apr-18 23:30N 40°40' W 074°01'1 1.3
2018-Apr-18 23:00N 40°41' W 074°01'1 2.5
2018-Apr-18 22:30N 40°42' W 074°00'2 4.0
2018-Apr-18 22:00N 40°40' W 074°01'1 1.5
2018-Apr-18 21:30N 40°41' W 074°01'1 2.5
2018-Apr-18 21:00N 40°42' W 074°00'2 4.0
2018-Apr-18 20:30N 40°40' W 074°01'0 0.6
2018-Apr-18 20:00N 40°40' W 074°01'2 4.0
2018-Apr-18 19:31N 40°42' W 074°00'2 3.9
2018-Apr-18 19:00N 40°40' W 074°01'1 1.4
2018-Apr-18 18:30N 40°41' W 074°01'1 2.6
2018-Apr-18 18:00N 40°42' W 074°00'4 7.0
2018-Apr-18 17:30N 40°39' W 074°02'612.6
2018-Apr-18 17:01N 40°45' W 073°58'  
2018-Apr-13 18:00N 40°40' W 074°01'0 0.0
2018-Apr-12 17:41N 40°40' W 074°01'0 0.0
2018-Apr-12 12:57N 40°40' W 074°01'  

Dump ship's entire track history